Time;durP1;ratioP1;P1;durP2;ratioP2;P2;SDS_P1;SDS_P2;PMS_P1;PMS_P2;Temp;Humidity;BMP_temperature;BMP_pressure;BME280_temperature;BME280_humidity;BME280_pressure;Samples;Min_cycle;Max_cycle;Signal;HPM_P1;HPM_P2
2024/03/14 00:00:52;;;;;;;4.23;2.83;;;8.70;99.90;8.70;100602.00;;;;4882671;28;89192;-64
2024/03/14 00:03:18;;;;;;;3.03;2.20;;;8.80;99.90;8.70;100594.00;;;;4877171;28;108695;-64
2024/03/14 00:05:43;;;;;;;7.00;3.17;;;8.80;99.90;8.70;100601.00;;;;4876408;28;116797;-65
2024/03/14 00:08:09;;;;;;;6.13;2.77;;;8.80;99.90;8.80;100595.00;;;;4882326;28;109018;-64
2024/03/14 00:10:35;;;;;;;7.80;3.00;;;8.90;99.90;8.80;100599.00;;;;4884353;28;87908;-64
2024/03/14 00:13:01;;;;;;;3.70;2.00;;;8.90;99.90;8.80;100594.00;;;;4879013;28;100244;-64
2024/03/14 00:15:28;;;;;;;7.17;2.43;;;8.90;99.90;8.80;100590.00;;;;4876957;28;118173;-64
2024/03/14 00:17:54;;;;;;;7.87;2.83;;;8.90;99.90;8.80;100587.00;;;;4880453;28;88492;-65
2024/03/14 00:20:19;;;;;;;3.93;2.17;;;8.90;99.90;8.90;100596.00;;;;4882947;28;87574;-64
2024/03/14 00:22:46;;;;;;;3.57;1.97;;;8.90;99.90;8.90;100588.00;;;;4882502;28;88012;-64
2024/03/14 00:25:12;;;;;;;4.50;2.63;;;9.00;99.90;8.90;100592.00;;;;4880404;28;90240;-64
2024/03/14 00:27:43;;;;;;;3.77;2.40;;;9.00;99.90;8.90;100595.00;;;;4878107;28;89559;-64
2024/03/14 00:30:11;;;;;;;4.93;2.43;;;9.00;99.90;8.90;100596.00;;;;4882003;28;87720;-64
2024/03/14 00:32:37;;;;;;;4.47;2.97;;;9.10;99.90;9.00;100588.00;;;;4879105;28;88087;-64
2024/03/14 00:35:04;;;;;;;3.43;2.87;;;9.00;99.90;9.00;100589.00;;;;4879136;28;88987;-64
2024/03/14 00:37:30;;;;;;;5.20;3.37;;;9.10;99.90;9.00;100587.00;;;;4881220;28;110154;-64
2024/03/14 00:39:56;;;;;;;3.63;2.83;;;9.10;99.90;9.00;100579.00;;;;4878452;28;98791;-63
2024/03/14 00:42:24;;;;;;;2.87;2.00;;;9.00;99.90;9.00;100587.00;;;;4878684;28;86925;-64
2024/03/14 00:44:53;;;;;;;2.33;2.13;;;9.10;99.90;9.00;100577.00;;;;4878995;28;88531;-64
2024/03/14 00:47:20;;;;;;;3.40;2.60;;;9.10;99.90;9.00;100582.00;;;;4875867;28;87693;-65
2024/03/14 00:49:45;;;;;;;7.53;3.80;;;9.00;99.90;9.00;100576.00;;;;4877496;28;88812;-64
2024/03/14 00:52:11;;;;;;;3.67;2.53;;;9.00;99.90;8.90;100568.00;;;;4879777;28;87718;-64
2024/03/14 00:54:37;;;;;;;3.80;2.93;;;9.00;99.90;9.00;100567.00;;;;4876642;28;88212;-64
2024/03/14 00:57:03;;;;;;;3.87;2.80;;;9.10;99.90;9.00;100567.00;;;;4881203;28;87903;-64
2024/03/14 00:59:30;;;;;;;2.60;2.03;;;9.10;99.90;9.00;100563.00;;;;4876414;28;110231;-64
2024/03/14 01:01:56;;;;;;;4.60;3.17;;;9.10;99.90;9.00;100569.00;;;;4882687;28;102048;-64
2024/03/14 01:04:22;;;;;;;6.43;3.10;;;9.10;99.90;9.00;100564.00;;;;4880920;28;88761;-64
2024/03/14 01:06:48;;;;;;;4.73;2.50;;;9.10;99.90;9.00;100562.00;;;;4881021;28;88481;-64
2024/03/14 01:09:16;;;;;;;3.13;2.80;;;9.10;99.90;9.00;100553.00;;;;4877080;28;101276;-64
2024/03/14 01:11:43;;;;;;;3.07;2.30;;;9.10;99.90;9.00;100559.00;;;;4880523;28;87999;-64
2024/03/14 01:14:11;;;;;;;3.50;2.87;;;9.10;99.90;9.10;100552.00;;;;4878361;28;90056;-64
2024/03/14 01:16:39;;;;;;;5.17;2.43;;;9.20;99.90;9.10;100554.00;;;;4880787;28;88740;-64
2024/03/14 01:19:06;;;;;;;4.23;2.97;;;9.20;99.90;9.10;100556.00;;;;4875369;28;101700;-64
2024/03/14 01:21:38;;;;;;;3.77;2.53;;;9.20;99.90;9.20;100553.00;;;;4878765;28;87734;-64
2024/03/14 01:24:04;;;;;;;2.97;2.67;;;9.20;99.90;9.20;100549.00;;;;4877827;28;89546;-64
2024/03/14 01:26:29;;;;;;;3.57;2.70;;;9.20;99.90;9.20;100544.00;;;;4878273;28;111444;-64
2024/03/14 01:28:56;;;;;;;5.27;2.73;;;9.30;99.90;9.20;100546.00;;;;4874456;28;111263;-64
2024/03/14 01:31:21;;;;;;;3.77;2.27;;;9.30;99.90;9.20;100545.00;;;;4884260;28;87060;-64
2024/03/14 01:33:47;;;;;;;3.77;3.13;;;9.40;99.90;9.20;100541.00;;;;4881431;28;117661;-65
2024/03/14 01:36:13;;;;;;;3.33;2.77;;;9.30;99.90;9.30;100527.00;;;;4877554;28;103857;-65
2024/03/14 01:38:38;;;;;;;5.27;2.60;;;9.40;99.90;9.30;100542.00;;;;4878313;28;88791;-65
2024/03/14 01:41:21;;;;;;;4.17;2.23;;;9.40;99.90;9.30;100532.00;;;;4880030;28;89117;-65
2024/03/14 01:44:00;;;;;;;4.47;3.43;;;9.40;99.90;9.30;100541.00;;;;4880307;28;88467;-65
2024/03/14 01:46:30;;;;;;;4.70;3.27;;;9.40;99.90;9.40;100529.00;;;;4875328;28;88458;-65
2024/03/14 01:48:57;;;;;;;4.07;2.97;;;9.40;99.90;9.40;100532.00;;;;4874446;28;88002;-66
2024/03/14 01:51:24;;;;;;;5.60;3.00;;;9.50;99.90;9.40;100529.00;;;;4879679;28;89497;-64
2024/03/14 01:53:53;;;;;;;4.77;4.03;;;9.50;99.90;9.40;100530.00;;;;4880643;28;88622;-65
2024/03/14 01:56:21;;;;;;;4.37;3.07;;;9.50;99.90;9.50;100522.00;;;;4881364;28;88073;-65
2024/03/14 01:58:51;;;;;;;4.93;2.77;;;9.50;99.90;9.50;100530.00;;;;4876873;28;87691;-65
2024/03/14 02:01:18;;;;;;;4.03;2.93;;;9.60;99.90;9.50;100526.00;;;;4878038;28;95514;-65
2024/03/14 02:03:55;;;;;;;4.00;2.63;;;9.60;99.90;9.50;100522.00;;;;4880436;28;89333;-65
2024/03/14 02:06:39;;;;;;;6.30;3.40;;;9.60;99.90;9.50;100521.00;;;;4876228;28;89010;-65
2024/03/14 02:09:05;;;;;;;3.83;2.67;;;9.60;99.90;9.60;100512.00;;;;4875482;28;102711;-64
2024/03/14 02:11:30;;;;;;;6.40;3.00;;;9.60;99.90;9.60;100520.00;;;;4875949;28;109296;-64
2024/03/14 02:13:57;;;;;;;6.53;3.10;;;9.70;99.90;9.60;100521.00;;;;4878916;28;118722;-65
2024/03/14 02:16:23;;;;;;;4.80;3.93;;;9.60;99.90;9.60;100516.00;;;;4880316;28;87854;-65
2024/03/14 02:18:48;;;;;;;3.93;3.53;;;9.60;99.90;9.60;100515.00;;;;4880336;28;87798;-65
2024/03/14 02:21:14;;;;;;;3.17;2.87;;;9.70;99.90;9.60;100512.00;;;;4878948;28;109182;-65
2024/03/14 02:23:40;;;;;;;4.17;2.63;;;9.70;99.90;9.60;100505.00;;;;4877787;28;120619;-65
2024/03/14 02:26:06;;;;;;;3.53;2.70;;;9.60;99.90;9.60;100511.00;;;;4880185;28;88395;-65
2024/03/14 02:28:32;;;;;;;4.93;3.17;;;9.70;99.90;9.60;100517.00;;;;4882212;28;88927;-64
2024/03/14 02:30:58;;;;;;;5.00;3.57;;;9.70;99.90;9.60;100517.00;;;;4880037;28;104126;-65
2024/03/14 02:33:23;;;;;;;4.83;3.10;;;9.70;99.90;9.60;100517.00;;;;4874753;28;116446;-66
2024/03/14 02:35:49;;;;;;;4.57;3.90;;;9.70;99.90;9.60;100514.00;;;;4893466;28;116406;-64
2024/03/14 02:38:15;;;;;;;3.40;2.47;;;9.70;99.90;9.60;100513.00;;;;4882196;28;88203;-65
2024/03/14 02:40:41;;;;;;;4.40;3.90;;;9.70;99.90;9.60;100514.00;;;;4876101;28;89029;-64
2024/03/14 02:43:06;;;;;;;4.57;3.00;;;9.70;99.90;9.70;100521.00;;;;4878619;28;118382;-65
2024/03/14 02:45:32;;;;;;;4.67;2.93;;;9.70;99.90;9.60;100516.00;;;;4879908;28;111320;-65
2024/03/14 02:47:58;;;;;;;3.67;2.90;;;9.70;99.90;9.70;100515.00;;;;4874332;28;93794;-65
2024/03/14 02:50:24;;;;;;;3.07;2.40;;;9.70;99.90;9.70;100509.00;;;;4875946;28;87759;-64
2024/03/14 02:52:49;;;;;;;8.40;3.83;;;9.80;99.90;9.70;100525.00;;;;4878174;28;118588;-64
2024/03/14 02:55:15;;;;;;;3.40;2.70;;;9.70;99.90;9.70;100514.00;;;;4874261;28;117684;-65
2024/03/14 02:57:41;;;;;;;7.77;4.17;;;9.80;99.90;9.70;100515.00;;;;4878218;28;103505;-65
2024/03/14 03:00:16;;;;;;;4.47;3.40;;;9.80;99.90;9.70;100515.00;;;;4876785;28;87833;-65
2024/03/14 03:02:44;;;;;;;4.70;3.93;;;9.80;99.90;9.70;100517.00;;;;4875788;28;88320;-64
2024/03/14 03:05:10;;;;;;;3.57;3.13;;;9.80;99.90;9.70;100515.00;;;;4880246;28;88915;-65
2024/03/14 03:07:37;;;;;;;4.03;3.03;;;9.80;99.90;9.70;100508.00;;;;4875617;28;87947;-66
2024/03/14 03:10:06;;;;;;;3.87;3.47;;;9.80;99.90;9.80;100510.00;;;;4882442;28;87357;-64
2024/03/14 03:12:41;;;;;;;4.97;3.47;;;9.80;99.90;9.80;100513.00;;;;4879464;28;88968;-65
2024/03/14 03:15:09;;;;;;;6.37;3.47;;;9.90;99.90;9.80;100507.00;;;;4880092;28;88875;-65
2024/03/14 03:17:35;;;;;;;4.37;3.10;;;9.90;99.90;9.80;100511.00;;;;4881013;28;88472;-64
2024/03/14 03:20:09;;;;;;;8.03;4.47;;;9.90;99.90;9.80;100506.00;;;;4882636;28;89312;-64
2024/03/14 03:23:05;;;;;;;4.63;3.27;;;9.90;99.90;9.80;100509.00;;;;4880824;28;88727;-65
2024/03/14 03:25:20;;;;;;;7.10;4.33;;;9.80;99.90;9.80;100497.00;;;;4884423;28;88061;-64
2024/03/14 03:27:46;;;;;;;6.23;3.97;;;9.90;99.90;9.80;100505.00;;;;4879017;28;110414;-63
2024/03/14 03:30:12;;;;;;;4.77;3.47;;;9.90;99.90;9.80;100512.00;;;;4882326;28;88088;-63
2024/03/14 03:32:38;;;;;;;6.53;3.90;;;9.90;99.90;9.80;100501.00;;;;4880132;28;88743;-63
2024/03/14 03:35:04;;;;;;;5.27;3.53;;;9.90;99.90;9.80;100510.00;;;;4879572;28;117226;-65
2024/03/14 03:37:29;;;;;;;4.90;3.30;;;9.90;99.90;9.80;100499.00;;;;4879280;28;100640;-64
2024/03/14 03:39:56;;;;;;;4.57;2.87;;;9.90;99.90;9.80;100508.00;;;;4882516;28;108064;-64
2024/03/14 03:42:22;;;;;;;4.93;3.50;;;9.90;99.90;9.80;100512.00;;;;4877418;28;89716;-64
2024/03/14 03:44:49;;;;;;;6.03;3.83;;;9.90;99.90;9.80;100519.00;;;;4879958;28;111990;-64
2024/03/14 03:47:18;;;;;;;4.43;2.90;;;9.80;99.90;9.70;100508.00;;;;4878394;28;87865;-64
2024/03/14 03:49:44;;;;;;;5.00;3.77;;;9.80;99.90;9.70;100510.00;;;;4881204;28;87994;-65
2024/03/14 03:52:12;;;;;;;4.00;3.50;;;9.80;99.90;9.60;100506.00;;;;4880644;28;89091;-64
2024/03/14 03:54:39;;;;;;;4.97;4.07;;;9.70;99.90;9.50;100513.00;;;;4884910;28;89117;-64
2024/03/14 03:57:05;;;;;;;5.30;3.57;;;9.60;99.90;9.50;100506.00;;;;4879818;28;101842;-64
2024/03/14 03:59:30;;;;;;;6.03;3.37;;;9.60;99.90;9.40;100507.00;;;;4877159;28;101929;-63
2024/03/14 04:01:56;;;;;;;4.53;3.80;;;9.50;99.90;9.30;100505.00;;;;4879919;28;116707;-64
2024/03/14 04:04:22;;;;;;;5.73;4.17;;;9.40;99.90;9.30;100511.00;;;;4885025;28;117823;-64
2024/03/14 04:06:48;;;;;;;6.80;4.87;;;9.40;99.90;9.20;100507.00;;;;4880870;28;88636;-63
2024/03/14 04:09:16;;;;;;;7.77;4.47;;;9.40;99.90;9.20;100501.00;;;;4884849;28;108136;-63
2024/03/14 04:11:42;;;;;;;5.60;4.50;;;9.30;99.90;9.10;100504.00;;;;4884105;28;89136;-64
2024/03/14 04:14:09;;;;;;;5.83;4.23;;;9.20;99.90;9.10;100501.00;;;;4881523;28;118230;-65
2024/03/14 04:16:36;;;;;;;6.13;4.47;;;9.20;99.90;9.10;100497.00;;;;4883226;28;87713;-64
2024/03/14 04:19:03;;;;;;;11.53;4.17;;;9.20;99.90;9.10;100501.00;;;;4879962;28;87804;-64
2024/03/14 04:21:28;;;;;;;9.27;4.67;;;9.10;99.90;9.00;100501.00;;;;4883669;28;88684;-64
2024/03/14 04:23:56;;;;;;;7.40;5.30;;;9.10;99.90;9.00;100503.00;;;;4878537;28;117975;-64
2024/03/14 04:26:22;;;;;;;5.83;4.17;;;9.10;99.90;9.00;100503.00;;;;4879395;28;87784;-64
2024/03/14 04:28:49;;;;;;;7.70;5.33;;;9.10;99.90;9.00;100505.00;;;;4878443;28;88152;-65
2024/03/14 04:31:15;;;;;;;10.50;5.57;;;9.10;99.90;9.00;100493.00;;;;4881814;28;89264;-64
2024/03/14 04:33:40;;;;;;;8.87;5.83;;;9.00;99.90;9.00;100498.00;;;;4881328;28;110006;-64
2024/03/14 04:36:08;;;;;;;6.57;4.40;;;9.00;99.90;9.00;100499.00;;;;4877091;28;107376;-65
2024/03/14 04:38:34;;;;;;;5.17;4.67;;;9.10;99.90;9.00;100508.00;;;;4879477;28;88127;-63
2024/03/14 04:41:00;;;;;;;14.07;6.77;;;9.00;99.90;9.00;100508.00;;;;4878111;28;116672;-65
2024/03/14 04:43:27;;;;;;;9.13;5.83;;;9.00;99.90;9.00;100502.00;;;;4878647;28;88776;-64
2024/03/14 04:45:52;;;;;;;7.73;5.00;;;9.10;99.90;9.00;100510.00;;;;4881058;28;88140;-65
2024/03/14 04:48:18;;;;;;;11.90;5.13;;;9.10;99.90;9.00;100508.00;;;;4878764;28;93607;-65
2024/03/14 04:50:46;;;;;;;7.37;5.37;;;9.30;99.90;9.00;100508.00;;;;4877059;28;117791;-65
2024/03/14 04:53:12;;;;;;;8.77;6.90;;;9.10;99.90;9.00;100511.00;;;;4879108;28;88838;-65
2024/03/14 04:55:41;;;;;;;10.07;6.60;;;9.10;99.90;9.00;100514.00;;;;4880259;28;109606;-65
2024/03/14 04:58:06;;;;;;;11.13;6.13;;;9.10;99.90;9.00;100515.00;;;;4869333;28;88001;-65
2024/03/14 05:00:32;;;;;;;8.37;5.50;;;9.20;99.90;9.10;100517.00;;;;4879022;28;116976;-65
2024/03/14 05:02:58;;;;;;;10.67;6.63;;;9.10;99.90;9.10;100511.00;;;;4863212;28;116081;-65
2024/03/14 05:05:24;;;;;;;9.23;6.57;;;9.10;99.90;9.10;100513.00;;;;4883360;28;87825;-65
2024/03/14 05:07:54;;;;;;;8.90;6.37;;;9.20;99.90;9.10;100506.00;;;;4877238;28;107265;-65
2024/03/14 05:10:20;;;;;;;9.40;5.17;;;9.20;99.90;9.10;100509.00;;;;4871693;28;88629;-65
2024/03/14 05:12:46;;;;;;;10.50;6.87;;;9.20;99.90;9.10;100504.00;;;;4879638;28;101375;-66
2024/03/14 05:15:12;;;;;;;9.30;5.83;;;9.20;99.90;9.10;100501.00;;;;4877124;28;87934;-65
2024/03/14 05:17:39;;;;;;;10.73;6.27;;;9.30;99.90;9.10;100502.00;;;;4877520;28;88203;-65
2024/03/14 05:20:06;;;;;;;17.57;8.43;;;9.20;99.90;9.10;100517.00;;;;4881714;28;89605;-63
2024/03/14 05:22:32;;;;;;;12.67;7.37;;;9.20;99.90;9.20;100511.00;;;;4878023;28;89571;-64
2024/03/14 05:24:58;;;;;;;10.43;6.33;;;9.20;99.90;9.20;100515.00;;;;4880282;28;87810;-63
2024/03/14 05:27:27;;;;;;;9.63;6.50;;;9.60;99.90;9.20;100517.00;;;;4878184;28;95749;-64
2024/03/14 05:29:53;;;;;;;11.70;7.70;;;9.30;99.90;9.20;100508.00;;;;4877912;28;88668;-63
2024/03/14 05:32:29;;;;;;;11.93;8.33;;;9.30;99.90;9.20;100509.00;;;;4874289;28;101408;-63
2024/03/14 05:34:55;;;;;;;12.03;7.70;;;9.40;99.90;9.20;100503.00;;;;4876602;28;88191;-62
2024/03/14 05:37:21;;;;;;;11.17;8.40;;;9.30;99.90;9.20;100509.00;;;;4876784;28;87434;-62
2024/03/14 05:39:47;;;;;;;12.00;7.27;;;9.30;99.90;9.20;100512.00;;;;4873186;28;87771;-63
2024/03/14 05:42:13;;;;;;;13.13;7.70;;;9.30;99.90;9.20;100497.00;;;;4876080;28;117001;-62
2024/03/14 05:44:42;;;;;;;10.27;6.77;;;9.30;99.90;9.20;100502.00;;;;4875604;28;110997;-64
2024/03/14 05:47:11;;;;;;;11.27;7.93;;;9.30;99.90;9.30;100505.00;;;;4880813;28;88127;-64
2024/03/14 05:49:38;;;;;;;8.40;6.80;;;9.30;99.90;9.20;100494.00;;;;4877310;28;88522;-64
2024/03/14 05:52:04;;;;;;;11.40;7.50;;;9.40;99.90;9.30;100498.00;;;;4876868;28;88621;-64
2024/03/14 05:54:31;;;;;;;12.37;7.67;;;9.60;99.90;9.30;100512.00;;;;4877752;28;88052;-63
2024/03/14 05:57:00;;;;;;;9.10;5.80;;;9.30;99.90;9.30;100497.00;;;;4881106;28;88336;-63
2024/03/14 05:59:25;;;;;;;10.90;6.73;;;9.40;99.90;9.30;100496.00;;;;4872506;28;88764;-63
2024/03/14 06:01:51;;;;;;;14.23;6.83;;;9.30;99.90;9.30;100496.00;;;;4872740;28;97827;-63
2024/03/14 06:04:17;;;;;;;12.10;6.90;;;9.40;99.90;9.30;100496.00;;;;4877760;28;110000;-63
2024/03/14 06:06:43;;;;;;;14.03;8.93;;;9.40;99.90;9.30;100500.00;;;;4880870;28;100807;-62
2024/03/14 06:09:12;;;;;;;12.13;7.23;;;9.50;99.90;9.30;100498.00;;;;4877426;28;89660;-63
2024/03/14 06:11:38;;;;;;;11.70;8.43;;;9.40;99.90;9.30;100504.00;;;;4879360;28;89168;-62
2024/03/14 06:14:03;;;;;;;9.80;7.50;;;9.50;99.90;9.40;100498.00;;;;4878919;28;87934;-63
2024/03/14 06:16:30;;;;;;;12.90;7.73;;;9.50;99.90;9.40;100497.00;;;;4877795;28;87890;-63
2024/03/14 06:18:58;;;;;;;10.27;7.77;;;9.50;99.90;9.40;100498.00;;;;4880465;28;88804;-63
2024/03/14 06:21:24;;;;;;;12.93;7.90;;;9.50;99.90;9.40;100501.00;;;;4881588;28;89100;-62
2024/03/14 06:23:50;;;;;;;11.03;8.57;;;9.50;99.90;9.50;100497.00;;;;4879414;28;87925;-63
2024/03/14 06:26:16;;;;;;;13.37;9.40;;;9.60;99.90;9.50;100510.00;;;;4882105;28;87268;-63
2024/03/14 06:28:43;;;;;;;8.97;6.43;;;9.60;99.90;9.50;100507.00;;;;4877440;28;87933;-63
2024/03/14 06:31:10;;;;;;;15.63;11.00;;;9.70;99.90;9.60;100502.00;;;;4880593;28;88078;-62
2024/03/14 06:33:38;;;;;;;13.30;9.53;;;9.70;99.90;9.60;100508.00;;;;4880275;28;89055;-63
2024/03/14 06:36:05;;;;;;;16.30;11.27;;;9.60;99.90;9.60;100503.00;;;;4878448;28;88241;-62
2024/03/14 06:38:31;;;;;;;14.70;9.00;;;9.70;99.90;9.70;100502.00;;;;4878134;28;88790;-63
2024/03/14 06:40:57;;;;;;;14.60;8.77;;;9.70;99.90;9.70;100506.00;;;;4879555;28;88390;-62
2024/03/14 06:43:23;;;;;;;15.93;9.17;;;9.70;99.90;9.80;100520.00;;;;4877940;28;109007;-63
2024/03/14 06:45:48;;;;;;;15.03;9.70;;;9.80;99.90;9.90;100522.00;;;;4884434;28;87895;-63
2024/03/14 06:48:15;;;;;;;13.10;9.00;;;9.90;99.90;9.90;100517.00;;;;4881952;28;117698;-63
2024/03/14 06:50:41;;;;;;;10.57;8.30;;;9.90;99.90;9.90;100512.00;;;;4892200;28;105704;-63
2024/03/14 06:53:07;;;;;;;9.87;7.80;;;10.00;99.90;10.00;100517.00;;;;4882772;28;87787;-62
2024/03/14 06:55:33;;;;;;;13.97;9.30;;;10.10;99.90;10.00;100517.00;;;;4879954;28;88491;-62
2024/03/14 06:57:59;;;;;;;14.00;8.73;;;10.10;99.90;10.10;100516.00;;;;4882532;28;89559;-63
2024/03/14 07:00:27;;;;;;;11.60;8.43;;;10.10;99.90;10.20;100523.00;;;;4881218;28;118852;-64
2024/03/14 07:02:52;;;;;;;11.23;7.63;;;10.20;99.90;10.20;100514.00;;;;4884511;28;87946;-62
2024/03/14 07:05:19;;;;;;;17.47;7.87;;;10.30;99.90;10.30;100522.00;;;;4882052;28;96999;-63
2024/03/14 07:07:45;;;;;;;14.20;8.73;;;10.20;99.90;10.30;100520.00;;;;4877952;28;88341;-63
2024/03/14 07:10:16;;;;;;;16.50;9.03;;;10.40;99.90;10.40;100524.00;;;;4881015;28;115921;-63
2024/03/14 07:12:45;;;;;;;11.80;8.47;;;10.40;99.90;10.50;100526.00;;;;4883118;28;88537;-63
2024/03/14 07:15:12;;;;;;;13.33;8.13;;;10.50;99.90;10.50;100534.00;;;;4882634;28;87199;-62
2024/03/14 07:17:38;;;;;;;12.27;8.07;;;10.50;99.90;10.60;100522.00;;;;4883839;28;88429;-63
2024/03/14 07:20:16;;;;;;;12.03;7.97;;;10.60;99.90;10.60;100534.00;;;;4884425;28;104326;-63
2024/03/14 07:22:48;;;;;;;12.77;8.23;;;10.60;99.90;10.70;100545.00;;;;4882484;28;88593;-63
2024/03/14 07:25:17;;;;;;;15.57;9.63;;;10.70;99.90;10.70;100534.00;;;;4881950;28;87822;-63
2024/03/14 07:27:47;;;;;;;11.87;8.27;;;10.70;99.90;10.70;100536.00;;;;4884390;28;88841;-63
2024/03/14 07:30:15;;;;;;;12.80;9.77;;;10.80;99.90;10.80;100538.00;;;;4881452;28;87813;-63
2024/03/14 07:32:42;;;;;;;13.13;8.47;;;10.80;99.90;10.80;100542.00;;;;4880184;28;87883;-62
2024/03/14 07:35:09;;;;;;;14.30;9.13;;;10.80;99.90;10.80;100548.00;;;;4882448;28;87953;-63
2024/03/14 07:37:35;;;;;;;14.57;8.80;;;10.90;99.90;10.90;100537.00;;;;4882430;28;89032;-62
2024/03/14 07:40:04;;;;;;;13.70;8.40;;;10.90;99.90;11.00;100542.00;;;;4884876;28;87985;-62
2024/03/14 07:42:31;;;;;;;10.67;7.33;;;10.90;99.90;11.00;100549.00;;;;4883418;28;88044;-63
2024/03/14 07:44:57;;;;;;;13.63;8.57;;;11.00;99.90;11.00;100551.00;;;;4884099;28;87631;-63
2024/03/14 07:47:25;;;;;;;14.10;9.57;;;11.00;99.90;11.10;100546.00;;;;4879974;28;99548;-62
2024/03/14 07:49:53;;;;;;;11.53;7.87;;;11.10;99.90;11.10;100558.00;;;;4879466;28;90414;-63
2024/03/14 07:52:19;;;;;;;12.87;8.40;;;11.10;99.90;11.10;100546.00;;;;4877245;28;87806;-62
2024/03/14 07:54:47;;;;;;;13.73;7.90;;;11.20;99.90;11.10;100554.00;;;;4875795;28;87754;-64
2024/03/14 07:57:15;;;;;;;13.57;8.53;;;11.20;99.90;11.20;100551.00;;;;4878982;28;88973;-62
2024/03/14 07:59:41;;;;;;;14.43;8.93;;;11.20;99.90;11.20;100557.00;;;;4879791;28;88107;-62
2024/03/14 08:02:07;;;;;;;13.13;8.60;;;11.20;99.90;11.20;100569.00;;;;4882724;28;97755;-64
2024/03/14 08:04:34;;;;;;;17.47;7.50;;;11.30;99.90;11.30;100559.00;;;;4882312;28;87882;-63
2024/03/14 08:07:10;;;;;;;12.30;8.47;;;11.30;99.90;11.30;100562.00;;;;4881522;28;88489;-63
2024/03/14 08:09:37;;;;;;;13.10;8.00;;;11.40;99.90;11.40;100567.00;;;;4878923;28;88608;-63
2024/03/14 08:12:04;;;;;;;10.87;8.40;;;11.40;99.90;11.50;100564.00;;;;4878769;28;88755;-63
2024/03/14 08:14:30;;;;;;;14.50;8.77;;;11.50;99.90;11.50;100560.00;;;;4882263;28;100425;-63
2024/03/14 08:16:56;;;;;;;12.10;7.07;;;11.50;99.90;11.60;100567.00;;;;4877938;28;88385;-63
2024/03/14 08:19:23;;;;;;;12.47;8.10;;;11.60;99.90;11.60;100571.00;;;;4877432;28;117569;-62
2024/03/14 08:21:48;;;;;;;15.00;7.83;;;11.60;99.90;11.70;100565.00;;;;4877098;28;87975;-62
2024/03/14 08:24:16;;;;;;;15.90;8.87;;;11.60;99.90;11.70;100565.00;;;;4877704;28;108462;-63
2024/03/14 08:26:45;;;;;;;13.87;8.13;;;11.70;99.90;11.70;100574.00;;;;4874919;28;92066;-62
2024/03/14 08:29:11;;;;;;;13.30;7.03;;;11.70;99.90;11.70;100577.00;;;;4882449;28;88220;-62
2024/03/14 08:31:36;;;;;;;14.33;9.03;;;11.70;99.90;11.70;100576.00;;;;4880445;28;87997;-62
2024/03/14 08:34:05;;;;;;;10.10;7.73;;;11.70;99.90;11.70;100587.00;;;;4878491;28;108332;-63
2024/03/14 08:36:31;;;;;;;12.57;6.83;;;11.70;99.90;11.80;100576.00;;;;4878165;28;89999;-63
2024/03/14 08:38:57;;;;;;;12.93;8.57;;;11.70;99.90;11.80;100575.00;;;;4882430;28;90044;-63
2024/03/14 08:41:22;;;;;;;10.67;7.73;;;11.80;99.90;11.90;100579.00;;;;4884309;28;110042;-63
2024/03/14 08:43:48;;;;;;;13.20;7.87;;;11.90;99.90;12.00;100588.00;;;;4876173;28;109327;-62
2024/03/14 08:46:15;;;;;;;15.17;9.13;;;12.00;99.90;12.10;100580.00;;;;4879387;28;89056;-62
2024/03/14 08:48:42;;;;;;;9.00;7.60;;;12.10;99.90;12.20;100588.00;;;;4875297;28;88659;-63
2024/03/14 08:51:09;;;;;;;9.53;7.43;;;12.10;99.90;12.30;100580.00;;;;4879593;28;88705;-62
2024/03/14 08:54:07;;;;;;;9.13;6.97;;;12.20;99.90;12.40;100596.00;;;;4878871;28;87069;-62
2024/03/14 08:56:23;;;;;;;13.03;6.80;;;12.40;99.90;12.50;100589.00;;;;4882390;28;87954;-63
2024/03/14 08:58:56;;;;;;;14.93;7.23;;;12.40;99.90;12.50;100588.00;;;;4880339;28;95055;-62
2024/03/14 09:01:24;;;;;;;11.70;6.83;;;12.50;99.90;12.60;100594.00;;;;4877274;28;89104;-63
2024/03/14 09:03:51;;;;;;;11.73;7.57;;;12.60;99.90;12.60;100592.00;;;;4880058;28;88203;-63
2024/03/14 09:06:16;;;;;;;10.77;6.10;;;12.60;99.90;12.70;100587.00;;;;4880282;28;88994;-62
2024/03/14 09:08:43;;;;;;;11.60;6.70;;;12.70;99.90;12.70;100581.00;;;;4877845;28;116957;-62
2024/03/14 09:11:09;;;;;;;12.83;6.53;;;12.70;99.90;12.80;100583.00;;;;4881724;28;87872;-62
2024/03/14 09:13:35;;;;;;;7.43;5.67;;;12.80;99.90;12.80;100592.00;;;;4880152;28;87996;-63
2024/03/14 09:16:01;;;;;;;8.57;5.77;;;12.80;99.90;12.80;100600.00;;;;4878848;28;92151;-62
2024/03/14 09:18:27;;;;;;;12.17;7.57;;;12.90;99.90;12.90;100591.00;;;;4879261;28;117386;-62
2024/03/14 09:20:55;;;;;;;7.27;6.20;;;12.90;99.90;12.90;100581.00;;;;4881769;28;110607;-63
2024/03/14 09:23:25;;;;;;;10.50;5.90;;;12.90;99.90;13.00;100592.00;;;;4878263;28;87917;-62
2024/03/14 09:25:51;;;;;;;9.33;6.20;;;12.90;99.90;13.00;100590.00;;;;4884159;28;89530;-62
2024/03/14 09:28:17;;;;;;;12.97;6.70;;;13.00;99.90;13.10;100594.00;;;;4880580;28;106736;-63
2024/03/14 09:30:42;;;;;;;11.07;6.53;;;13.10;99.90;13.20;100590.00;;;;4882185;28;87818;-62
2024/03/14 09:33:08;;;;;;;12.47;6.13;;;13.20;99.90;13.30;100598.00;;;;4881951;28;87879;-62
2024/03/14 09:35:41;;;;;;;11.87;5.90;;;13.20;99.90;13.40;100591.00;;;;4875939;28;92347;-62
2024/03/14 09:38:07;;;;;;;9.97;6.60;;;13.30;99.90;13.40;100600.00;;;;4878848;28;88023;-63
2024/03/14 09:40:33;;;;;;;7.70;5.67;;;13.30;99.90;13.40;100589.00;;;;4877428;28;88051;-63
2024/03/14 09:43:00;;;;;;;10.00;6.13;;;13.40;99.90;13.50;100591.00;;;;4877683;28;87089;-62
2024/03/14 09:45:28;;;;;;;8.93;5.43;;;13.70;99.90;13.60;100599.00;;;;4882537;28;90250;-62
2024/03/14 09:47:56;;;;;;;9.40;5.23;;;13.50;99.90;13.60;100594.00;;;;4883753;28;88406;-62
2024/03/14 09:50:23;;;;;;;6.33;5.07;;;13.60;99.90;13.60;100588.00;;;;4876356;28;89015;-62
2024/03/14 09:52:54;;;;;;;11.93;6.70;;;13.50;99.90;13.60;100588.00;;;;4881315;28;87907;-62
2024/03/14 09:55:22;;;;;;;7.00;5.57;;;13.60;99.90;13.60;100590.00;;;;4884367;28;88552;-63
2024/03/14 09:57:51;;;;;;;7.63;5.05;;;13.60;99.90;13.60;100586.00;;;;4880013;28;88967;-62
2024/03/14 10:00:20;;;;;;;11.60;6.85;;;13.60;99.90;13.60;100586.00;;;;4878344;28;87770;-61
2024/03/14 10:02:49;;;;;;;13.70;6.00;;;13.60;99.90;13.60;100581.00;;;;4877060;28;88008;-63
2024/03/14 10:05:19;;;;;;;13.95;6.60;;;13.60;99.90;13.60;100576.00;;;;4878064;28;116895;-63
2024/03/14 10:07:46;;;;;;;9.90;6.17;;;13.60;99.90;13.70;100576.00;;;;4876229;28;88661;-62
2024/03/14 10:10:13;;;;;;;9.20;6.43;;;13.70;99.90;13.90;100573.00;;;;4879697;28;87814;-63
2024/03/14 10:12:50;;;;;;;9.23;6.07;;;13.80;99.90;14.00;100573.00;;;;4879513;28;87767;-63
2024/03/14 10:15:16;;;;;;;11.00;6.03;;;13.90;99.90;14.20;100570.00;;;;4877431;28;90161;-62
2024/03/14 10:17:45;;;;;;;8.35;5.80;;;14.10;99.90;14.30;100577.00;;;;4878966;28;90428;-62
2024/03/14 10:20:17;;;;;;;8.63;5.70;;;14.20;99.90;14.50;100578.00;;;;4874461;28;87835;-63
2024/03/14 10:22:50;;;;;;;8.85;6.20;;;14.30;99.90;14.50;100586.00;;;;4880876;28;87717;-62
2024/03/14 10:25:17;;;;;;;11.27;6.05;;;14.40;99.90;14.50;100576.00;;;;4877320;28;88178;-63
2024/03/14 10:27:48;;;;;;;6.90;5.03;;;14.50;99.90;14.50;100579.00;;;;4881433;28;88395;-62
2024/03/14 10:30:14;;;;;;;9.98;5.22;;;14.50;99.90;14.50;100577.00;;;;4878473;28;88575;-62
2024/03/14 10:32:40;;;;;;;7.68;4.22;;;14.40;99.90;14.50;100578.00;;;;4876851;28;99701;-63
2024/03/14 10:35:14;;;;;;;9.88;5.50;;;14.40;99.90;14.50;100580.00;;;;4876798;28;110021;-62
2024/03/14 10:37:46;;;;;;;10.82;6.10;;;14.50;99.90;14.50;100577.00;;;;4880779;28;88970;-63
2024/03/14 10:40:30;;;;;;;7.93;5.15;;;14.40;99.90;14.50;100578.00;;;;4879572;28;89066;-63
2024/03/14 10:42:57;;;;;;;11.98;5.93;;;14.40;99.90;14.40;100583.00;;;;4879204;28;87766;-63
2024/03/14 10:45:23;;;;;;;7.05;5.63;;;14.60;99.90;14.50;100571.00;;;;4872765;28;118027;-63
2024/03/14 10:47:55;;;;;;;9.63;5.47;;;14.40;99.90;14.60;100571.00;;;;4874823;28;88758;-62
2024/03/14 10:50:21;;;;;;;9.82;4.72;;;14.50;99.90;14.70;100575.00;;;;4876689;28;87817;-62
2024/03/14 10:52:49;;;;;;;12.73;6.88;;;14.60;99.90;14.70;100571.00;;;;4876438;28;88354;-62